Chimney Rock, CO (81127)

4:36 PM MDT on July 04, 2015 (GMT -0600)
Chimney Rock | | Change Station
CLOSE
Current Station
Personal Weather Station
Location: Bayfield, CO
Elevation: 6457 ft
Nearby Weather Stations

Elev 6457 ft 37.20 °N, 107.34 °W | Updated 12 minutes ago

Thunderstorm
Thunderstorm
85.1 °F
Feels Like 83 °F
N
1.0
Wind Variable Wind from East
Gusts 4.0 mph

Today
High -- | Low -- °F
--% Chance of Precip.
Yesterday
High -- | Low -- °F
Precip. -- in
5:54 AM 8:33 PM
Waning Gibbous, 89% visible
Pressure 30.25 in
Visibility 3.0 miles
Clouds Overcast 8000 ft
Heat Index 83 °F
Dew Point 50 °F
Humidity 30%
Rainfall 0.00 in
Snow Depth Not available.
UV 2 out of 12
Pollen .60 out of 12
Air Quality Not available.
Flu Activity Not available.
METAR KPSO 042215Z AUTO 33012G16KT 3SM TSRA OVC080 17/11 A3025 RMK AO2 LTG DSNT ALQS T01670110

More Conditions Fewer Conditions

Pressure 30.25 in
Visibility 3.0 miles
Clouds Overcast 8000 ft
Heat Index 83 °F
Dew Point 50 °F
Humidity 30%
Rainfall 0.00 in
Snow Depth Not available.
UV 2 out of 12
Pollen .60 out of 12
Air Quality Not available.
Flu Activity Not available.
METAR KPSO 042215Z AUTO 33012G16KT 3SM TSRA OVC080 17/11 A3025 RMK AO2 LTG DSNT ALQS T01670110

More Conditions Fewer Conditions

10-Day Weather Forecast

×

Almanac

Astronomy

Jul. 04, 2015 Rise Set
Actual Time
Civil Twilight
Nautical Twilight
Astronomical Twilight
Moon
Length of Visible Light
Length of Day
Tomorrow will be .
, % of the Moon is Illuminated

Today's Extremes

State Highs State Lows

Community

WunderPhotos

Upload Photos

1,835,105 photos uploaded!

WunderBlogs® & News

Nearby

Air Quality

  Air Quality AQ Index Pollutant
Not available.

Snow Depth

Station Depth Elevation

Earthquake Activity

City Distance Mag. Time & Date
Minimum magnitude displayed is 2.5.

Coastal Water Temperatures

Place Temperature

Stations

Nearby Weather Stations

Station Location Temp. Windchill Dew Point Humidity Wind Precip. Elev Updated Type